KLM69H EHAM-EFHK
Flight info
| Callsign | KLM69H |
|---|---|
| Flight time | N/A |
| Altitude | 35000 |
| Route | ANDIK DCT JUIST DCT ATTUS DCT KOXIM DCT RUNGA DCT RIRIP Y364 LAKUT |
| Aircraft | A21N/M-SDE2E3FGHIRWXY/LB1 |
Departure
| Time | 2026-04-18 09:19 |
|---|---|
| Airport | Amsterdam Airport Schiphol (EHAM) |
Arrival
| Time | N/A |
|---|---|
| Airport | Helsinki Vantaa Airport (EFHK) |
| Time | Latitude | Longitude | Altitude | Speed | Heading |
|---|---|---|---|---|---|
| 2026-04-18 09:00 | 52.31020 | 4.77180 | 8 ft | 0 kts | 183° |
| 2026-04-18 09:08 | 52.31023 | 4.77181 | 7 ft | 2 kts | 182° |
| 2026-04-18 09:08 | 52.31040 | 4.77182 | 7 ft | 2 kts | 184° |
| 2026-04-18 09:08 | 52.31056 | 4.77184 | 8 ft | 2 kts | 184° |
| 2026-04-18 09:08 | 52.31071 | 4.77177 | 12 ft | 2 kts | 127° |
| 2026-04-18 09:09 | 52.31079 | 4.77153 | 7 ft | 2 kts | 107° |
| 2026-04-18 09:09 | 52.31082 | 4.77127 | 6 ft | 2 kts | 99° |
| 2026-04-18 09:09 | 52.31084 | 4.77109 | 6 ft | 1 kts | 95° |
| 2026-04-18 09:09 | 52.31084 | 4.77107 | 6 ft | 0 kts | 94° |
| 2026-04-18 09:13 | 52.31084 | 4.77108 | 6 ft | 1 kts | 94° |
| 2026-04-18 09:14 | 52.31083 | 4.77136 | 6 ft | 4 kts | 94° |
| 2026-04-18 09:14 | 52.31081 | 4.77202 | 8 ft | 7 kts | 91° |
| 2026-04-18 09:14 | 52.31079 | 4.77309 | 11 ft | 12 kts | 91° |
| 2026-04-18 09:14 | 52.31065 | 4.77464 | 15 ft | 15 kts | 128° |
| 2026-04-18 09:15 | 52.30963 | 4.77483 | 16 ft | 16 kts | 183° |
| 2026-04-18 09:15 | 52.30841 | 4.77470 | 15 ft | 18 kts | 184° |
| 2026-04-18 09:15 | 52.30713 | 4.77457 | 13 ft | 18 kts | 182° |
| 2026-04-18 09:15 | 52.30659 | 4.77485 | 15 ft | 2 kts | 149° |
| 2026-04-18 09:16 | 52.30632 | 4.77501 | 17 ft | 9 kts | 159° |
| 2026-04-18 09:16 | 52.30550 | 4.77562 | 18 ft | 16 kts | 153° |
| 2026-04-18 09:16 | 52.30493 | 4.77608 | 20 ft | 0 kts | 155° |
| 2026-04-18 09:17 | 52.30476 | 4.77622 | 21 ft | 6 kts | 154° |
| 2026-04-18 09:17 | 52.30429 | 4.77637 | 21 ft | 9 kts | 197° |
| 2026-04-18 09:18 | 52.30371 | 4.77520 | 20 ft | 26 kts | 237° |
| 2026-04-18 09:18 | 52.30154 | 4.76951 | 18 ft | 91 kts | 238° |
| 2026-04-18 09:18 | 52.29691 | 4.75748 | 20 ft | 156 kts | 237° |
| 2026-04-18 09:18 | 52.29091 | 4.74172 | 488 ft | 163 kts | 239° |
| 2026-04-18 09:19 | 52.28511 | 4.72593 | 1262 ft | 160 kts | 241° |
| 2026-04-18 09:19 | 52.27945 | 4.71052 | 2106 ft | 162 kts | 240° |
| 2026-04-18 09:19 | 52.27335 | 4.69328 | 2550 ft | 187 kts | 247° |
| 2026-04-18 09:19 | 52.27115 | 4.67149 | 3073 ft | 205 kts | 275° |
| 2026-04-18 09:20 | 52.27722 | 4.64963 | 3770 ft | 222 kts | 305° |
| 2026-04-18 09:20 | 52.29004 | 4.63462 | 4548 ft | 237 kts | 334° |
| 2026-04-18 09:20 | 52.30701 | 4.63152 | 5152 ft | 264 kts | 7° |
| 2026-04-18 09:20 | 52.32456 | 4.64323 | 5799 ft | 280 kts | 26° |
| 2026-04-18 09:21 | 52.34149 | 4.65983 | 6667 ft | 286 kts | 29° |
| 2026-04-18 09:21 | 52.35854 | 4.67708 | 7474 ft | 291 kts | 29° |
| 2026-04-18 09:21 | 52.37595 | 4.69445 | 8303 ft | 296 kts | 28° |
| 2026-04-18 09:21 | 52.39374 | 4.71192 | 9154 ft | 301 kts | 28° |
| 2026-04-18 09:22 | 52.41188 | 4.72957 | 9994 ft | 306 kts | 28° |
| 2026-04-18 09:22 | 52.43050 | 4.74759 | 10642 ft | 319 kts | 28° |
| 2026-04-18 09:22 | 52.45030 | 4.76665 | 10971 ft | 341 kts | 28° |
| 2026-04-18 09:22 | 52.47138 | 4.78697 | 11304 ft | 362 kts | 28° |
| 2026-04-18 09:23 | 52.49360 | 4.80841 | 11743 ft | 378 kts | 28° |
| 2026-04-18 09:23 | 52.51651 | 4.83058 | 12432 ft | 385 kts | 29° |
| 2026-04-18 09:23 | 52.53876 | 4.85584 | 13197 ft | 392 kts | 40° |
| 2026-04-18 09:23 | 52.55754 | 4.88862 | 13995 ft | 398 kts | 50° |
| 2026-04-18 09:24 | 52.57473 | 4.92385 | 14681 ft | 402 kts | 51° |
| 2026-04-18 09:24 | 52.59228 | 4.96080 | 15384 ft | 407 kts | 52° |
| 2026-04-18 09:24 | 52.60954 | 4.99719 | 16070 ft | 411 kts | 52° |
| 2026-04-18 09:24 | 52.62724 | 5.03441 | 16776 ft | 414 kts | 51° |
| 2026-04-18 09:25 | 52.64511 | 5.07192 | 17483 ft | 419 kts | 51° |
| 2026-04-18 09:25 | 52.66321 | 5.10991 | 18180 ft | 423 kts | 52° |
| 2026-04-18 09:25 | 52.68144 | 5.14821 | 18783 ft | 427 kts | 52° |
| 2026-04-18 09:25 | 52.69989 | 5.18701 | 19272 ft | 432 kts | 52° |
| 2026-04-18 09:26 | 52.71854 | 5.22627 | 19758 ft | 438 kts | 52° |
| 2026-04-18 09:26 | 52.73745 | 5.26604 | 20269 ft | 443 kts | 51° |
| 2026-04-18 09:26 | 52.75701 | 5.30566 | 20747 ft | 448 kts | 50° |
| 2026-04-18 09:26 | 52.77719 | 5.34523 | 21254 ft | 453 kts | 49° |
| 2026-04-18 09:27 | 52.79777 | 5.38501 | 21767 ft | 458 kts | 49° |
| 2026-04-18 09:27 | 52.81184 | 5.41210 | 22142 ft | 461 kts | 49° |
| 2026-04-18 09:27 | 52.83280 | 5.45257 | 22644 ft | 467 kts | 49° |
| 2026-04-18 09:27 | 52.85400 | 5.49362 | 23126 ft | 472 kts | 49° |
| 2026-04-18 09:28 | 52.87508 | 5.53467 | 23583 ft | 476 kts | 50° |
| 2026-04-18 09:28 | 52.89683 | 5.57723 | 23995 ft | 479 kts | 50° |
| 2026-04-18 09:28 | 52.91837 | 5.61953 | 24468 ft | 481 kts | 50° |
| 2026-04-18 09:28 | 52.93996 | 5.66203 | 24845 ft | 484 kts | 50° |
| 2026-04-18 09:29 | 52.96168 | 5.70488 | 25220 ft | 487 kts | 50° |
| 2026-04-18 09:29 | 52.98329 | 5.74756 | 25579 ft | 491 kts | 50° |
| 2026-04-18 09:29 | 53.00526 | 5.79103 | 25942 ft | 494 kts | 50° |
| 2026-04-18 09:29 | 53.02736 | 5.83482 | 26303 ft | 497 kts | 50° |
| 2026-04-18 09:30 | 53.04962 | 5.87901 | 26660 ft | 500 kts | 50° |
| 2026-04-18 09:30 | 53.07197 | 5.92344 | 26991 ft | 502 kts | 50° |
| 2026-04-18 09:30 | 53.09443 | 5.96817 | 27319 ft | 505 kts | 50° |
| 2026-04-18 09:30 | 53.11699 | 6.01320 | 27683 ft | 508 kts | 50° |
| 2026-04-18 09:31 | 53.13965 | 6.05848 | 28033 ft | 509 kts | 50° |
| 2026-04-18 09:31 | 53.16226 | 6.10377 | 28481 ft | 509 kts | 50° |
| 2026-04-18 09:31 | 53.18491 | 6.14921 | 28879 ft | 508 kts | 50° |
| 2026-04-18 09:31 | 53.20740 | 6.19441 | 29393 ft | 505 kts | 50° |
| 2026-04-18 09:32 | 53.22977 | 6.23947 | 29803 ft | 505 kts | 50° |
| 2026-04-18 09:32 | 53.25218 | 6.28469 | 30158 ft | 506 kts | 50° |
| 2026-04-18 09:32 | 53.27460 | 6.32998 | 30484 ft | 506 kts | 50° |
| 2026-04-18 09:32 | 53.29701 | 6.37537 | 30847 ft | 505 kts | 50° |
| 2026-04-18 09:33 | 53.31932 | 6.42061 | 31211 ft | 503 kts | 50° |
| 2026-04-18 09:33 | 53.34153 | 6.46575 | 31571 ft | 502 kts | 51° |
| 2026-04-18 09:33 | 53.36369 | 6.51087 | 31912 ft | 501 kts | 51° |
| 2026-04-18 09:33 | 53.38579 | 6.55594 | 32236 ft | 501 kts | 51° |
| 2026-04-18 09:34 | 53.40787 | 6.60105 | 32552 ft | 500 kts | 51° |
| 2026-04-18 09:34 | 53.42988 | 6.64610 | 32865 ft | 499 kts | 51° |
| 2026-04-18 09:34 | 53.45182 | 6.69108 | 33156 ft | 498 kts | 51° |
| 2026-04-18 09:34 | 53.47372 | 6.73607 | 33434 ft | 497 kts | 51° |
| 2026-04-18 09:35 | 53.49553 | 6.78094 | 33774 ft | 495 kts | 52° |
| 2026-04-18 09:35 | 53.51730 | 6.82583 | 34068 ft | 494 kts | 52° |
| 2026-04-18 09:35 | 53.53897 | 6.87059 | 34297 ft | 494 kts | 52° |
| 2026-04-18 09:35 | 53.56180 | 6.91360 | 34527 ft | 494 kts | 44° |
| 2026-04-18 09:36 | 53.58758 | 6.95202 | 34711 ft | 494 kts | 40° |
| 2026-04-18 09:36 | 53.61398 | 6.98908 | 34927 ft | 493 kts | 39° |
| 2026-04-18 09:36 | 53.64067 | 7.02535 | 35120 ft | 493 kts | 38° |
| 2026-04-18 09:36 | 53.66759 | 7.06137 | 35166 ft | 495 kts | 38° |